Save, Benin
Current Conditions -  °F | °C
As of 8:00 AM on Saturday 20 Dec 2014 (Local Time) from DBBB Reporting Station
Haze Haze  
Wind Chill: 77°   Ceiling: Unl
Heat Index: 78°   Visibility: 2.1mi
Dew Point: 77°   Wind: 1mph
Humidity: 100%   Direction: NA
Pressure: 29.88"   Gusts: NA
Location:  8.03°N, 2.49°E
Report Text: DBBB 200700Z VRB01KT 3500 BR SCT010 SCT090 25/25 Q1012 BECMG 6000 NSW
Loading
Personal Weather Stations






























Interactive Weather Map New forecast layout! Learn more

10-Day Weather Forecast

Advertisements
Track Severe Weather on mobile